aviador You're here:

KRKR Decoded Metar

POTEAU (R KERR) in OK, USA
Report Time2018-05-26 15:35:00
UTC Time2018-05-26 15:45:37
Flight Rules vfr VFR
WindCalm
Visibility9999 m
Phenomena:N/A
Clouds:N/A
Expected CloudBase > 2,400 ft AGL from Temp-Dew spread
CeilingNone
Temp26°C (ISA +12)
Dew Point20°C (70% RH)
QNH1012 hPa
Density Alt2,172 ft
Elevation453 ft
Report Wrong Elevation
Raw Report
KRKR 261535Z AUTO 00000KT 10SM CLR 26/20 A2989 RMK AO2=

Extra information for KRKR:More info

Metar Taf Metar & Taf Last 4 Metars F.Rules Stats Wind Profile Meteogram Temp Stats Airport Information Weather charts Add Link Nearby VenuesMetar ALERT Operation Metar Decoded Social comments

AIRNAV info for KRKR